createdAt,value
2019-05-18T00:02:08.266Z,10.47
2019-05-18T00:04:41.368Z,10.47
2019-05-18T00:07:11.446Z,10.53
2019-05-18T00:09:41.555Z,10.54
2019-05-18T00:12:11.603Z,10.54
2019-05-18T00:14:41.731Z,10.58
2019-05-18T00:17:24.510Z,10.55
2019-05-18T00:19:43.623Z,10.59
2019-05-18T00:22:13.704Z,10.60
2019-05-18T00:24:43.780Z,10.55
2019-05-18T00:27:15.863Z,10.54
2019-05-18T00:29:45.657Z,10.49
2019-05-18T00:32:15.898Z,10.46
2019-05-18T00:34:45.974Z,10.50
2019-05-18T00:37:16.077Z,10.53
2019-05-18T00:39:46.205Z,10.55
2019-05-18T00:42:16.281Z,10.59
2019-05-18T00:44:46.376Z,10.50
2019-05-18T00:47:16.487Z,10.49
2019-05-18T00:49:46.567Z,10.55
2019-05-18T00:52:16.656Z,10.55
2019-05-18T00:54:46.724Z,10.58
2019-05-18T00:57:16.812Z,10.56
2019-05-18T00:59:46.934Z,10.56
2019-05-18T01:02:17.053Z,10.59
2019-05-18T01:04:47.129Z,10.57
2019-05-18T01:07:17.207Z,10.48
2019-05-18T01:09:47.289Z,10.44
2019-05-18T01:12:17.369Z,10.49
2019-05-18T01:15:46.567Z,10.47
2019-05-18T01:18:16.750Z,10.53
2019-05-18T01:20:47.208Z,10.57
2019-05-18T01:23:17.271Z,10.59
2019-05-18T01:25:47.388Z,10.60
2019-05-18T01:28:17.458Z,10.62
2019-05-18T01:30:47.652Z,10.62
2019-05-18T01:33:17.799Z,10.59
2019-05-18T01:35:47.926Z,10.58
2019-05-18T01:38:18.005Z,10.60
2019-05-18T01:40:48.136Z,10.63
2019-05-18T01:43:18.199Z,10.66
2019-05-18T01:45:48.291Z,10.61
2019-05-18T01:48:18.420Z,10.62
2019-05-18T01:50:48.500Z,10.62
2019-05-18T01:53:18.593Z,10.65
2019-05-18T01:55:48.710Z,10.63
2019-05-18T01:58:18.847Z,10.60
2019-05-18T02:00:48.937Z,10.63
2019-05-18T02:03:19.116Z,10.60
2019-05-18T02:05:49.263Z,10.62
2019-05-18T02:08:19.376Z,10.62
2019-05-18T02:10:49.485Z,10.62
2019-05-18T02:13:19.648Z,10.63
2019-05-18T02:15:49.726Z,10.58
2019-05-18T02:18:28.642Z,10.55
2019-05-18T02:20:51.637Z,10.52
2019-05-18T02:23:21.746Z,10.46
2019-05-18T02:25:51.820Z,10.43
2019-05-18T02:28:21.928Z,10.39
2019-05-18T02:30:52.151Z,10.35
2019-05-18T02:33:22.247Z,10.28
2019-05-18T02:35:52.330Z,10.28
2019-05-18T02:38:22.471Z,10.25
2019-05-18T02:40:52.571Z,10.27
2019-05-18T02:43:22.655Z,10.26
2019-05-18T02:45:52.726Z,10.27
2019-05-18T02:48:22.813Z,10.23
2019-05-18T02:50:52.927Z,10.20
2019-05-18T02:53:22.991Z,10.16
2019-05-18T02:55:53.120Z,10.13
2019-05-18T02:58:23.171Z,10.10
2019-05-18T03:00:53.277Z,10.08
2019-05-18T03:03:23.362Z,10.03
2019-05-18T03:05:53.434Z,10.02
2019-05-18T03:08:23.512Z,9.99
2019-05-18T03:10:53.771Z,9.95
2019-05-18T03:13:23.830Z,9.92
2019-05-18T03:15:53.987Z,9.87
2019-05-18T03:18:24.061Z,9.87
2019-05-18T03:20:54.185Z,9.85
2019-05-18T03:23:24.284Z,9.84
2019-05-18T03:25:54.371Z,9.86
2019-05-18T03:28:24.443Z,9.88
2019-05-18T03:30:54.517Z,9.87
2019-05-18T03:33:29.141Z,9.87
2019-05-18T03:35:56.385Z,9.93
2019-05-18T03:38:26.442Z,9.93
2019-05-18T03:40:56.566Z,9.96
2019-05-18T03:43:26.660Z,10.02
2019-05-18T03:45:56.755Z,10.04
2019-05-18T03:48:26.823Z,10.05
2019-05-18T03:50:56.943Z,10.04
2019-05-18T03:53:27.002Z,10.10
2019-05-18T03:55:57.219Z,10.10
2019-05-18T03:58:27.238Z,10.18
2019-05-18T04:00:57.318Z,10.24
2019-05-18T04:03:27.379Z,10.34
2019-05-18T04:05:57.478Z,10.45
2019-05-18T04:08:27.629Z,10.53
2019-05-18T04:10:57.740Z,10.56
2019-05-18T04:13:27.833Z,10.59
2019-05-18T04:15:57.908Z,10.66
2019-05-18T04:18:27.983Z,10.69
2019-05-18T04:20:58.374Z,10.73
2019-05-18T04:23:28.533Z,10.78
2019-05-18T04:25:58.626Z,10.85
2019-05-18T04:28:28.727Z,10.89
2019-05-18T04:30:58.778Z,10.94
2019-05-18T04:33:28.904Z,11.03
2019-05-18T04:35:59.004Z,11.10
2019-05-18T04:38:29.104Z,11.19
2019-05-18T04:41:02.559Z,11.20
2019-05-18T04:43:32.678Z,11.27
2019-05-18T04:46:02.770Z,11.31
2019-05-18T04:48:32.886Z,11.34
2019-05-18T04:51:02.981Z,11.35
2019-05-18T04:53:33.071Z,11.35
2019-05-18T04:56:03.187Z,11.43
2019-05-18T04:58:33.339Z,11.50
2019-05-18T05:01:03.422Z,11.56
2019-05-18T05:03:33.667Z,11.62
2019-05-18T05:06:03.776Z,11.71
2019-05-18T05:08:33.887Z,11.77
2019-05-18T05:11:04.009Z,11.90
2019-05-18T05:13:34.112Z,12.02
2019-05-18T05:16:04.594Z,12.09
2019-05-18T05:18:34.773Z,12.17
2019-05-18T05:21:04.898Z,12.30
2019-05-18T05:23:34.967Z,12.37
2019-05-18T05:26:05.095Z,12.42
2019-05-18T05:28:35.188Z,12.36
2019-05-18T05:31:05.304Z,12.53
2019-05-18T05:33:38.453Z,12.91
2019-05-18T05:36:08.567Z,14.42
2019-05-18T05:38:38.693Z,14.01
2019-05-18T05:41:08.854Z,14.14
2019-05-18T05:43:38.915Z,14.57
2019-05-18T05:46:08.981Z,15.76
2019-05-18T05:48:39.069Z,14.57
2019-05-18T05:51:09.181Z,15.24
2019-05-18T05:53:39.320Z,14.71
2019-05-18T05:56:09.418Z,16.47
2019-05-18T05:58:39.515Z,14.96
2019-05-18T06:01:09.589Z,15.36
2019-05-18T06:03:39.695Z,15.00
2019-05-18T06:06:09.879Z,14.99
2019-05-18T06:08:40.001Z,14.65
2019-05-18T06:11:11.992Z,14.79
2019-05-18T06:13:42.079Z,15.88
2019-05-18T06:16:13.928Z,16.93
2019-05-18T06:18:44.056Z,17.70
2019-05-18T06:21:14.248Z,17.92
2019-05-18T06:23:44.340Z,17.01
2019-05-18T06:26:14.416Z,18.37
2019-05-18T06:28:44.706Z,18.58
2019-05-18T06:31:16.600Z,18.76
2019-05-18T06:33:46.748Z,19.33
2019-05-18T06:36:16.864Z,19.14
2019-05-18T06:38:46.950Z,19.26
2019-05-18T06:41:17.044Z,19.26
2019-05-18T06:43:47.167Z,19.11
2019-05-18T06:46:17.303Z,17.77
2019-05-18T06:48:47.422Z,17.96
2019-05-18T06:51:19.284Z,17.65
2019-05-18T06:53:49.452Z,18.17
2019-05-18T06:56:19.750Z,18.08
2019-05-18T06:58:51.721Z,17.99
2019-05-18T07:01:21.851Z,18.66
2019-05-18T07:03:51.953Z,18.52
2019-05-18T07:06:22.019Z,18.63
2019-05-18T07:08:52.131Z,18.09
2019-05-18T07:11:22.208Z,18.08
2019-05-18T07:13:52.330Z,19.16
2019-05-18T07:16:22.458Z,19.54
2019-05-18T07:18:52.541Z,19.97
2019-05-18T07:21:22.835Z,20.32
2019-05-18T07:23:52.935Z,20.58
2019-05-18T07:26:23.027Z,20.06
2019-05-18T07:28:53.137Z,20.60
2019-05-18T07:31:23.395Z,20.59
2019-05-18T07:33:53.547Z,20.23
2019-05-18T07:36:23.675Z,20.61
2019-05-18T07:38:53.776Z,20.59
2019-05-18T07:41:23.881Z,20.80
2019-05-18T07:43:54.047Z,20.88
2019-05-18T07:46:24.157Z,21.34
2019-05-18T07:48:54.274Z,20.91
2019-05-18T07:51:36.319Z,21.25
2019-05-18T07:53:56.213Z,21.65
2019-05-18T07:56:26.322Z,21.29
2019-05-18T07:58:56.420Z,21.57
2019-05-18T08:01:26.496Z,22.02
2019-05-18T08:03:56.591Z,22.11
2019-05-18T08:06:26.680Z,21.88
2019-05-18T08:08:56.820Z,22.23
2019-05-18T08:11:27.263Z,22.18
2019-05-18T08:13:57.538Z,22.03
2019-05-18T08:16:28.731Z,22.55
2019-05-18T08:18:58.819Z,22.18
2019-05-18T08:21:28.917Z,22.37
2019-05-18T08:23:59.098Z,21.55
2019-05-18T08:26:29.169Z,22.11
2019-05-18T08:28:59.301Z,22.27
2019-05-18T08:31:29.431Z,22.78
2019-05-18T08:33:59.570Z,22.44
2019-05-18T08:36:29.651Z,23.06
2019-05-18T08:39:01.490Z,23.16
2019-05-18T08:41:31.604Z,22.69
2019-05-18T08:44:01.748Z,22.46
2019-05-18T08:46:31.853Z,22.94
2019-05-18T08:49:01.945Z,23.85
2019-05-18T08:51:32.035Z,24.18
2019-05-18T08:54:02.184Z,24.12
2019-05-18T08:56:32.282Z,24.58
2019-05-18T08:59:02.453Z,24.72
2019-05-18T09:01:32.571Z,24.46
2019-05-18T09:04:02.668Z,24.54
2019-05-18T09:06:32.748Z,23.79
2019-05-18T09:09:04.724Z,23.96
2019-05-18T09:11:34.873Z,22.98
2019-05-18T09:14:05.001Z,23.57
2019-05-18T09:16:35.109Z,23.44
2019-05-18T09:19:05.207Z,24.26
2019-05-18T09:21:35.273Z,23.67
2019-05-18T09:24:05.510Z,22.51
2019-05-18T09:26:35.618Z,24.44
2019-05-18T09:29:05.895Z,25.01
2019-05-18T09:31:35.960Z,25.66
2019-05-18T09:34:06.063Z,25.52
2019-05-18T09:36:36.163Z,24.41
2019-05-18T09:39:07.652Z,23.75
2019-05-18T09:41:37.799Z,24.80
2019-05-18T09:44:07.910Z,24.03
2019-05-18T09:46:38.005Z,23.07
2019-05-18T09:49:08.391Z,23.28
2019-05-18T09:51:38.493Z,24.49
2019-05-18T09:54:08.627Z,24.98
2019-05-18T09:56:38.730Z,22.64
2019-05-18T09:59:08.934Z,22.82
2019-05-18T10:01:39.020Z,22.44
2019-05-18T10:04:09.087Z,22.46
2019-05-18T10:06:39.207Z,23.92
2019-05-18T10:09:09.867Z,22.81
2019-05-18T10:11:39.958Z,23.86
2019-05-18T10:14:10.060Z,24.14
2019-05-18T10:16:40.203Z,24.43
2019-05-18T10:19:10.269Z,23.40
2019-05-18T10:21:40.417Z,23.27
2019-05-18T10:24:10.550Z,23.38
2019-05-18T10:26:40.631Z,23.39
2019-05-18T10:29:10.741Z,23.10
2019-05-18T10:31:40.854Z,23.03
2019-05-18T10:34:10.948Z,22.78
2019-05-18T10:36:41.119Z,24.11
2019-05-18T10:39:11.213Z,25.87
2019-05-18T10:41:41.337Z,24.96
2019-05-18T10:44:11.428Z,23.67
2019-05-18T10:46:41.505Z,23.77
2019-05-18T10:49:11.629Z,23.22
2019-05-18T10:51:41.724Z,22.81
2019-05-18T10:54:14.716Z,23.72
2019-05-18T10:56:44.841Z,22.92
2019-05-18T10:59:14.929Z,23.63
2019-05-18T11:01:45.071Z,22.60
2019-05-18T11:04:15.172Z,23.63
2019-05-18T11:06:45.273Z,24.23
2019-05-18T11:09:15.373Z,23.37
2019-05-18T11:11:45.471Z,22.85
2019-05-18T11:14:18.751Z,23.34
2019-05-18T11:16:47.447Z,24.17
2019-05-18T11:19:17.650Z,23.91
2019-05-18T11:21:47.754Z,23.67
2019-05-18T11:24:17.848Z,22.93
2019-05-18T11:26:47.926Z,22.69
2019-05-18T11:29:23.417Z,22.43
2019-05-18T11:31:51.861Z,22.94
2019-05-18T11:34:21.949Z,25.01
2019-05-18T11:36:52.073Z,24.61
2019-05-18T11:39:22.236Z,25.68
2019-05-18T11:41:52.360Z,24.51
2019-05-18T11:44:22.430Z,24.66
2019-05-18T11:46:52.537Z,24.05
2019-05-18T11:49:28.979Z,23.52
2019-05-18T11:51:57.470Z,23.15
2019-05-18T11:54:27.628Z,23.28
2019-05-18T11:56:57.781Z,24.05
2019-05-18T11:59:27.891Z,24.76
2019-05-18T12:01:57.970Z,23.99
2019-05-18T12:04:28.088Z,24.00
2019-05-18T12:06:58.197Z,24.43
2019-05-18T12:09:28.308Z,25.95
2019-05-18T12:11:58.394Z,25.31
2019-05-18T12:14:28.515Z,24.11
2019-05-18T12:16:58.594Z,23.99
2019-05-18T12:19:28.727Z,23.38
2019-05-18T12:21:58.841Z,23.93
2019-05-18T12:24:28.954Z,24.47
2019-05-18T12:26:59.047Z,24.78
2019-05-18T12:29:29.171Z,23.96
2019-05-18T12:31:59.270Z,24.26
2019-05-18T12:34:29.463Z,23.55
2019-05-18T12:36:59.577Z,22.83
2019-05-18T12:39:29.693Z,22.48
2019-05-18T12:41:59.906Z,21.93
2019-05-18T12:44:30.033Z,22.41
2019-05-18T12:47:00.150Z,23.59
2019-05-18T12:49:30.271Z,24.99
2019-05-18T12:52:00.346Z,25.01
2019-05-18T12:54:45.373Z,26.39
2019-05-18T12:57:02.312Z,26.06
2019-05-18T12:59:32.424Z,25.17
2019-05-18T13:02:02.533Z,24.85
2019-05-18T13:04:32.627Z,23.98
2019-05-18T13:07:02.744Z,24.39
2019-05-18T13:09:32.851Z,24.52
2019-05-18T13:12:02.991Z,24.65
2019-05-18T13:14:33.077Z,25.08
2019-05-18T13:17:03.156Z,24.08
2019-05-18T13:19:33.635Z,23.30
2019-05-18T13:22:03.711Z,22.91
2019-05-18T13:24:44.922Z,23.81
2019-05-18T13:27:05.724Z,24.96
2019-05-18T13:29:35.851Z,25.32
2019-05-18T13:32:05.991Z,25.86
2019-05-18T13:34:36.085Z,26.25
2019-05-18T13:37:06.150Z,26.53
2019-05-18T13:39:37.108Z,26.24
2019-05-18T13:42:07.217Z,25.13
2019-05-18T13:44:38.197Z,24.29
2019-05-18T13:47:08.483Z,23.93
2019-05-18T13:49:38.592Z,23.62
2019-05-18T13:52:08.669Z,25.06
2019-05-18T13:54:40.208Z,26.18
2019-05-18T13:57:10.327Z,26.88
2019-05-18T13:59:40.432Z,25.65
2019-05-18T14:02:10.534Z,24.63
2019-05-18T14:04:42.056Z,24.07
2019-05-18T14:07:12.174Z,24.00
2019-05-18T14:09:42.280Z,24.24
2019-05-18T14:12:12.458Z,25.45
2019-05-18T14:14:42.573Z,26.48
2019-05-18T14:17:12.664Z,26.82
2019-05-18T14:19:42.772Z,26.88
2019-05-18T14:22:12.889Z,26.86
2019-05-18T14:24:42.976Z,26.90
2019-05-18T14:27:13.099Z,27.17
2019-05-18T14:29:43.235Z,26.28
2019-05-18T14:32:13.351Z,26.41
2019-05-18T14:34:43.422Z,25.93
2019-05-18T14:37:13.541Z,25.65
2019-05-18T14:39:43.633Z,26.15
2019-05-18T14:42:13.780Z,26.51
2019-05-18T14:44:43.845Z,26.15
2019-05-18T14:47:13.988Z,26.37
2019-05-18T14:49:46.559Z,26.82
2019-05-18T14:52:16.649Z,26.95
2019-05-18T14:54:46.743Z,26.59
2019-05-18T14:57:16.861Z,26.33
2019-05-18T14:59:46.956Z,25.55
2019-05-18T15:02:17.095Z,26.46
2019-05-18T15:04:47.189Z,27.13
2019-05-18T15:07:17.311Z,27.27
2019-05-18T15:09:47.387Z,27.39
2019-05-18T15:12:17.524Z,27.22
2019-05-18T15:14:47.663Z,26.88
2019-05-18T15:17:21.102Z,27.53
2019-05-18T15:19:51.195Z,27.52
2019-05-18T15:22:21.325Z,27.58
2019-05-18T15:24:51.492Z,27.86
2019-05-18T15:27:21.550Z,27.52
2019-05-18T15:29:51.679Z,27.51
2019-05-18T15:32:21.787Z,27.07
2019-05-18T15:34:51.937Z,27.05
2019-05-18T15:37:22.046Z,27.05
2019-05-18T15:39:52.551Z,26.65
2019-05-18T15:42:22.669Z,25.97
2019-05-18T15:44:52.879Z,25.60
2019-05-18T15:47:22.961Z,25.41
2019-05-18T15:49:53.079Z,25.13
2019-05-18T15:52:23.568Z,24.64
2019-05-18T15:54:53.664Z,24.54
2019-05-18T15:57:26.175Z,24.82
2019-05-18T15:59:55.624Z,24.50
2019-05-18T16:02:25.722Z,24.49
2019-05-18T16:04:55.814Z,24.47
2019-05-18T16:07:25.943Z,24.26
2019-05-18T16:09:56.034Z,23.67
2019-05-18T16:12:26.128Z,23.96
2019-05-18T16:14:56.238Z,23.81
2019-05-18T16:17:38.306Z,23.53
2019-05-18T16:19:58.450Z,23.69
2019-05-18T16:22:28.540Z,23.28
2019-05-18T16:24:58.719Z,22.85
2019-05-18T16:27:28.925Z,22.93
2019-05-18T16:29:59.094Z,23.03
2019-05-18T16:32:32.229Z,23.14
2019-05-18T16:35:04.014Z,23.20
2019-05-18T16:37:34.080Z,22.68
2019-05-18T16:40:04.304Z,22.31
2019-05-18T16:42:34.419Z,21.93
2019-05-18T16:45:04.895Z,21.58
2019-05-18T16:47:35.013Z,21.49
2019-05-18T16:50:06.575Z,21.38
2019-05-18T16:52:36.728Z,21.33
2019-05-18T16:55:07.522Z,21.10
2019-05-18T16:57:39.951Z,20.91
2019-05-18T17:00:15.419Z,20.90
2019-05-18T17:02:44.506Z,21.16
2019-05-18T17:05:15.553Z,21.24
2019-05-18T17:07:45.651Z,21.14
2019-05-18T17:10:15.982Z,20.96
2019-05-18T17:12:46.073Z,20.63
2019-05-18T17:15:16.441Z,20.52
2019-05-18T17:17:46.495Z,20.32
2019-05-18T17:20:16.682Z,20.24
2019-05-18T17:22:46.795Z,20.10
2019-05-18T17:25:19.580Z,20.02
2019-05-18T17:27:49.717Z,20.01
2019-05-18T17:30:21.088Z,19.97
2019-05-18T17:32:51.217Z,19.81
2019-05-18T17:35:21.450Z,19.87
2019-05-18T17:37:51.578Z,19.85
2019-05-18T17:40:21.775Z,19.73
2019-05-18T17:42:52.004Z,19.71
2019-05-18T17:45:22.476Z,19.75
2019-05-18T17:47:54.083Z,19.67
2019-05-18T17:50:24.182Z,19.58
2019-05-18T17:52:54.406Z,19.44
2019-05-18T17:55:24.517Z,19.46
2019-05-18T17:57:54.647Z,19.36
2019-05-18T18:00:24.758Z,19.37
2019-05-18T18:02:54.857Z,19.35
2019-05-18T18:05:24.961Z,19.22
2019-05-18T18:07:55.727Z,19.22
2019-05-18T18:10:26.052Z,19.18
2019-05-18T18:12:56.153Z,19.04
2019-05-18T18:15:26.650Z,18.90
2019-05-18T18:17:56.794Z,18.83
2019-05-18T18:20:26.878Z,18.77
2019-05-18T18:22:56.984Z,18.68
2019-05-18T18:25:27.061Z,18.55
2019-05-18T18:28:00.764Z,18.50
2019-05-18T18:30:30.879Z,18.40
2019-05-18T18:33:00.970Z,18.38
2019-05-18T18:35:31.196Z,18.32
2019-05-18T18:38:01.307Z,18.29
2019-05-18T18:40:31.405Z,18.19
2019-05-18T18:43:01.516Z,18.15
2019-05-18T18:45:33.437Z,18.03
2019-05-18T18:48:03.601Z,17.99
2019-05-18T18:50:33.695Z,17.89
2019-05-18T18:53:03.843Z,17.82
2019-05-18T18:55:33.925Z,17.72
2019-05-18T18:58:04.122Z,17.64
2019-05-18T19:00:34.182Z,17.56
2019-05-18T19:03:04.303Z,17.46
2019-05-18T19:05:34.393Z,17.28
2019-05-18T19:08:04.515Z,17.19
2019-05-18T19:10:34.588Z,17.06
2019-05-18T19:13:04.671Z,16.95
2019-05-18T19:15:34.760Z,16.81
2019-05-18T19:18:04.876Z,16.72
2019-05-18T19:20:34.979Z,16.54
2019-05-18T19:23:05.123Z,16.43
2019-05-18T19:25:35.164Z,16.31
2019-05-18T19:28:05.259Z,16.22
2019-05-18T19:30:35.367Z,16.14
2019-05-18T19:33:05.483Z,16.04
2019-05-18T19:35:35.571Z,15.92
2019-05-18T19:38:05.690Z,15.86
2019-05-18T19:40:35.811Z,15.76
2019-05-18T19:43:05.895Z,15.68
2019-05-18T19:45:36.023Z,15.61
2019-05-18T19:48:06.115Z,15.57
2019-05-18T19:50:36.254Z,15.52
2019-05-18T19:53:06.403Z,15.45
2019-05-18T19:55:36.502Z,15.39
2019-05-18T19:58:09.074Z,15.27
2019-05-18T20:00:38.487Z,15.14
2019-05-18T20:03:08.605Z,15.13
2019-05-18T20:05:38.662Z,14.96
2019-05-18T20:08:08.762Z,14.85
2019-05-18T20:10:38.854Z,14.77
2019-05-18T20:13:08.986Z,14.76
2019-05-18T20:15:39.179Z,14.65
2019-05-18T20:18:09.390Z,14.55
2019-05-18T20:20:39.548Z,14.49
2019-05-18T20:23:09.697Z,14.41
2019-05-18T20:25:39.808Z,14.41
2019-05-18T20:28:22.862Z,14.35
2019-05-18T20:30:43.835Z,14.21
2019-05-18T20:33:13.994Z,14.17
2019-05-18T20:35:46.135Z,14.14
2019-05-18T20:38:15.952Z,14.08
2019-05-18T20:40:46.054Z,13.94
2019-05-18T20:43:16.158Z,13.84
2019-05-18T20:45:46.282Z,13.80
2019-05-18T20:48:17.065Z,13.75
2019-05-18T20:50:47.289Z,13.69
2019-05-18T20:53:17.390Z,13.65
2019-05-18T20:55:47.572Z,13.64
2019-05-18T20:58:19.397Z,13.50
2019-05-18T21:00:49.529Z,13.47
2019-05-18T21:03:19.622Z,13.41
2019-05-18T21:05:49.889Z,13.39
2019-05-18T21:08:20.014Z,13.23
2019-05-18T21:10:50.223Z,13.20
2019-05-18T21:13:20.350Z,13.18
2019-05-18T21:15:50.470Z,13.13
2019-05-18T21:18:20.544Z,13.08
2019-05-18T21:20:50.661Z,13.06
2019-05-18T21:23:20.777Z,13.05
2019-05-18T21:25:50.876Z,12.95
2019-05-18T21:28:20.954Z,12.89
2019-05-18T21:30:51.069Z,12.84
2019-05-18T21:33:21.173Z,12.78
2019-05-18T21:35:51.294Z,12.79
2019-05-18T21:38:21.420Z,12.74
2019-05-18T21:40:51.764Z,12.74
2019-05-18T21:43:21.965Z,12.69
2019-05-18T21:45:52.074Z,12.70
2019-05-18T21:48:22.233Z,12.71
2019-05-18T21:50:52.413Z,12.56
2019-05-18T21:53:22.517Z,12.54
2019-05-18T21:55:52.614Z,12.52
2019-05-18T21:58:22.949Z,12.49
2019-05-18T22:00:53.603Z,12.44
2019-05-18T22:03:23.700Z,12.42
2019-05-18T22:05:53.973Z,12.41
2019-05-18T22:08:24.123Z,12.39
2019-05-18T22:10:54.392Z,12.28
2019-05-18T22:13:24.502Z,12.23
2019-05-18T22:15:54.604Z,12.29
2019-05-18T22:18:25.111Z,12.25
2019-05-18T22:20:55.377Z,12.20
2019-05-18T22:23:25.474Z,12.17
2019-05-18T22:25:57.153Z,12.13
2019-05-18T22:28:27.467Z,12.02
2019-05-18T22:30:57.564Z,12.01
2019-05-18T22:33:27.878Z,11.98
2019-05-18T22:35:58.020Z,11.98
2019-05-18T22:38:28.131Z,11.91
2019-05-18T22:40:58.226Z,11.87
2019-05-18T22:43:28.316Z,11.85
2019-05-18T22:45:58.408Z,11.88
2019-05-18T22:48:40.934Z,11.83
2019-05-18T22:51:00.325Z,11.79
2019-05-18T22:53:30.422Z,11.86
2019-05-18T22:56:02.272Z,11.84
2019-05-18T22:58:32.372Z,11.81
2019-05-18T23:01:02.456Z,11.79
2019-05-18T23:03:32.551Z,11.74
2019-05-18T23:06:02.680Z,11.69
2019-05-18T23:08:32.764Z,11.65
2019-05-18T23:11:02.834Z,11.53
2019-05-18T23:13:33.007Z,11.56
2019-05-18T23:16:03.102Z,11.52
2019-05-18T23:18:33.213Z,11.49
2019-05-18T23:21:03.595Z,11.51
2019-05-18T23:23:33.730Z,11.55
2019-05-18T23:26:03.809Z,11.60
2019-05-18T23:28:33.993Z,11.63
2019-05-18T23:31:04.057Z,11.64
2019-05-18T23:33:34.159Z,11.64
2019-05-18T23:36:04.250Z,11.62
2019-05-18T23:38:34.356Z,11.71
2019-05-18T23:41:04.419Z,11.65
2019-05-18T23:43:34.498Z,11.60
2019-05-18T23:46:04.582Z,11.69
2019-05-18T23:48:34.695Z,11.80
2019-05-18T23:51:04.760Z,11.76
2019-05-18T23:53:34.844Z,11.72
2019-05-18T23:56:04.974Z,11.70
2019-05-18T23:58:35.083Z,11.76
